Time;durP1;ratioP1;P1;durP2;ratioP2;P2;SDS_P1;SDS_P2;PMS_P1;PMS_P2;Temp;Humidity;BMP_temperature;BMP_pressure;BME280_temperature;BME280_humidity;BME280_pressure;Samples;Min_cycle;Max_cycle;Signal;HPM_P1;HPM_P2
2022/11/30 00:01:20;;;;;;;168.65;64.00;;;9.30;99.90;;;;;;5026868;28;20084;-73
2022/11/30 00:03:46;;;;;;;170.23;60.00;;;9.40;99.90;;;;;;5026735;28;20038;-72
2022/11/30 00:06:14;;;;;;;193.70;63.33;;;9.40;99.90;;;;;;5022107;28;20086;-73
2022/11/30 00:08:40;;;;;;;179.73;65.15;;;9.40;99.90;;;;;;5035809;28;20025;-73
2022/11/30 00:11:09;;;;;;;286.30;78.70;;;9.30;99.90;;;;;;5022730;28;20048;-73
2022/11/30 00:13:35;;;;;;;181.15;63.80;;;9.30;99.90;;;;;;5027970;28;20095;-70
2022/11/30 00:16:01;;;;;;;205.13;69.32;;;9.30;99.90;;;;;;5025166;28;20037;-73
2022/11/30 00:18:26;;;;;;;216.88;74.00;;;9.40;99.90;;;;;;5022398;28;20088;-72
2022/11/30 00:20:53;;;;;;;188.88;65.07;;;9.40;99.90;;;;;;5026406;28;20416;-73
2022/11/30 00:23:18;;;;;;;194.23;64.15;;;9.30;99.90;;;;;;5023096;28;20470;-73
2022/11/30 00:25:44;;;;;;;215.05;66.40;;;9.30;99.90;;;;;;5027100;28;20156;-72
2022/11/30 00:28:10;;;;;;;168.52;61.67;;;9.30;99.90;;;;;;5026845;28;20026;-71
2022/11/30 00:30:36;;;;;;;168.95;58.78;;;9.30;99.90;;;;;;5025645;28;20481;-73
2022/11/30 00:33:01;;;;;;;179.32;62.78;;;9.40;99.90;;;;;;5022099;28;20025;-71
2022/11/30 00:35:27;;;;;;;159.77;57.05;;;9.40;99.90;;;;;;5025191;28;20042;-70
2022/11/30 00:37:53;;;;;;;165.70;55.50;;;9.40;99.90;;;;;;5026049;28;20028;-73
2022/11/30 00:40:18;;;;;;;190.45;59.88;;;9.50;99.90;;;;;;5025341;28;20061;-71
2022/11/30 00:42:44;;;;;;;173.65;59.38;;;9.40;99.90;;;;;;5022418;28;20060;-71
2022/11/30 00:45:09;;;;;;;193.25;63.05;;;9.40;99.90;;;;;;5025080;28;20021;-70
2022/11/30 00:47:35;;;;;;;171.50;57.83;;;9.40;99.90;;;;;;5028772;28;20043;-71
2022/11/30 00:50:02;;;;;;;149.80;54.28;;;9.40;99.90;;;;;;5025522;28;20548;-69
2022/11/30 00:52:29;;;;;;;157.52;55.60;;;9.40;99.90;;;;;;5026755;28;20028;-71
2022/11/30 00:54:55;;;;;;;143.73;51.97;;;9.40;99.90;;;;;;5020785;28;20034;-71
2022/11/30 00:57:20;;;;;;;139.80;51.63;;;9.40;99.90;;;;;;5022998;28;20393;-69
2022/11/30 00:59:46;;;;;;;188.68;63.03;;;9.40;99.90;;;;;;5025201;28;20029;-69
2022/11/30 01:02:12;;;;;;;147.70;54.92;;;9.40;99.90;;;;;;5027328;28;20022;-69
2022/11/30 01:04:37;;;;;;;160.93;56.28;;;9.50;99.90;;;;;;5020000;28;20026;-70
2022/11/30 01:07:03;;;;;;;144.05;55.05;;;9.50;99.90;;;;;;5022185;28;20095;-70
2022/11/30 01:09:28;;;;;;;168.90;56.83;;;9.50;99.90;;;;;;5026026;28;20029;-69
2022/11/30 01:11:54;;;;;;;153.38;54.47;;;9.50;99.90;;;;;;5021659;28;20459;-71
2022/11/30 01:14:20;;;;;;;154.88;55.05;;;9.50;99.90;;;;;;5025724;28;20049;-70
2022/11/30 01:16:45;;;;;;;163.35;59.75;;;9.50;99.90;;;;;;5021484;28;20452;-71
2022/11/30 01:19:11;;;;;;;158.75;57.05;;;9.50;99.90;;;;;;5027158;28;20355;-70
2022/11/30 01:21:37;;;;;;;156.93;56.75;;;9.50;99.90;;;;;;5023742;28;20104;-70
2022/11/30 01:24:03;;;;;;;151.93;55.22;;;9.50;99.90;;;;;;5027346;28;20017;-70
2022/11/30 01:26:28;;;;;;;170.75;57.97;;;9.50;99.90;;;;;;5024396;28;20040;-69
2022/11/30 01:28:55;;;;;;;201.05;61.10;;;9.50;99.90;;;;;;5029507;28;20022;-69
2022/11/30 01:31:22;;;;;;;168.30;60.80;;;9.50;99.90;;;;;;5029971;28;20037;-70
2022/11/30 01:33:52;;;;;;;189.43;59.85;;;9.60;99.90;;;;;;5029044;28;20561;-69
2022/11/30 01:36:21;;;;;;;164.93;55.30;;;9.60;99.90;;;;;;5025416;28;20044;-71
2022/11/30 01:38:50;;;;;;;171.43;58.25;;;9.60;99.90;;;;;;5029102;28;20445;-70
2022/11/30 01:41:22;;;;;;;170.85;57.13;;;9.60;99.90;;;;;;5024979;28;20033;-70
2022/11/30 01:43:52;;;;;;;166.38;57.08;;;9.60;99.90;;;;;;5027704;28;20091;-69
2022/11/30 01:46:35;;;;;;;184.43;58.05;;;9.70;99.90;;;;;;5029135;28;20025;-69
2022/11/30 01:49:15;;;;;;;163.70;56.83;;;9.70;99.90;;;;;;5029331;28;20040;-69
2022/11/30 01:51:49;;;;;;;155.38;52.30;;;9.60;99.90;;;;;;5029278;28;20048;-70
2022/11/30 01:54:19;;;;;;;171.35;57.22;;;9.70;99.90;;;;;;5030905;28;20119;-69
2022/11/30 01:57:02;;;;;;;178.40;60.03;;;9.70;99.90;;;;;;5027532;28;20045;-69
2022/11/30 01:59:28;;;;;;;157.60;55.67;;;9.60;99.90;;;;;;5029525;28;20041;-69
2022/11/30 02:01:54;;;;;;;149.77;52.50;;;9.60;99.90;;;;;;5029439;28;20037;-69
2022/11/30 02:04:33;;;;;;;154.65;53.90;;;9.60;99.90;;;;;;5029484;28;20022;-69
2022/11/30 02:07:01;;;;;;;131.23;50.50;;;9.60;99.90;;;;;;5026659;28;20056;-69
2022/11/30 02:09:28;;;;;;;134.60;48.33;;;9.70;99.90;;;;;;5029129;28;20090;-69
2022/11/30 02:11:55;;;;;;;152.02;54.22;;;9.60;99.90;;;;;;5027168;28;20104;-69
2022/11/30 02:14:32;;;;;;;157.35;57.03;;;9.70;99.90;;;;;;5025872;28;20037;-69
2022/11/30 02:17:03;;;;;;;157.35;53.60;;;9.60;99.90;;;;;;5027422;28;20037;-69
2022/11/30 02:20:11;;;;;;;158.15;51.50;;;9.70;99.90;;;;;;5024909;28;20030;-70
2022/11/30 02:22:53;;;;;;;143.90;50.20;;;9.70;99.90;;;;;;5026559;28;20756;-69
2022/11/30 02:25:28;;;;;;;167.10;54.80;;;9.70;99.90;;;;;;5028297;28;20068;-69
2022/11/30 02:28:06;;;;;;;180.07;54.85;;;9.70;99.90;;;;;;5022482;28;20018;-70
2022/11/30 02:30:33;;;;;;;155.60;52.67;;;9.60;99.90;;;;;;5028406;28;20044;-69
2022/11/30 02:33:11;;;;;;;171.55;54.88;;;9.60;99.90;;;;;;5028450;28;20028;-69
2022/11/30 02:35:40;;;;;;;153.60;51.72;;;9.60;99.90;;;;;;5028531;28;20037;-69
2022/11/30 02:38:06;;;;;;;184.65;57.95;;;9.70;99.90;;;;;;5021781;28;20037;-69
2022/11/30 02:40:32;;;;;;;154.30;52.50;;;9.70;99.90;;;;;;5026015;28;20116;-70
2022/11/30 02:43:00;;;;;;;153.77;54.67;;;9.70;99.90;;;;;;5025820;28;20159;-69
2022/11/30 02:45:33;;;;;;;195.95;58.60;;;9.80;99.90;;;;;;5026290;28;20025;-70
2022/11/30 02:48:04;;;;;;;;;;;9.80;99.90;;;;;;5028753;28;20056;-70
2022/11/30 02:50:39;;;;;;;154.60;53.78;;;9.80;99.90;;;;;;5028140;28;19962;-70
2022/11/30 02:53:07;;;;;;;167.77;53.22;;;9.70;99.90;;;;;;5025266;28;20041;-70
2022/11/30 02:55:33;;;;;;;181.63;58.15;;;9.70;99.90;;;;;;5024750;28;20098;-70
2022/11/30 02:57:58;;;;;;;174.95;55.33;;;9.70;99.90;;;;;;5026515;28;20033;-70
2022/11/30 03:00:24;;;;;;;183.73;57.58;;;9.70;99.90;;;;;;5021206;28;20072;-70
2022/11/30 03:02:49;;;;;;;144.20;51.20;;;9.70;99.90;;;;;;5027094;28;20037;-70
2022/11/30 03:05:15;;;;;;;149.52;54.15;;;9.70;99.90;;;;;;5024236;28;20100;-69
2022/11/30 03:07:41;;;;;;;163.07;53.38;;;9.70;99.90;;;;;;5027054;28;20029;-70
2022/11/30 03:10:07;;;;;;;173.73;57.33;;;9.70;99.90;;;;;;5027173;28;20204;-70
2022/11/30 03:12:33;;;;;;;159.50;54.55;;;9.80;99.90;;;;;;5022906;28;20037;-70
2022/11/30 03:14:58;;;;;;;170.85;56.00;;;9.80;99.90;;;;;;5027649;28;20477;-70
2022/11/30 03:17:24;;;;;;;179.98;58.78;;;9.80;99.90;;;;;;5028630;28;20155;-70
2022/11/30 03:19:50;;;;;;;164.27;55.80;;;9.70;99.90;;;;;;5024142;28;20029;-69
2022/11/30 03:22:15;;;;;;;164.77;52.85;;;9.80;99.90;;;;;;5026310;28;20478;-70
2022/11/30 03:24:41;;;;;;;158.00;54.20;;;9.80;99.90;;;;;;5026745;28;20029;-70
2022/11/30 03:27:07;;;;;;;187.68;58.05;;;9.80;99.90;;;;;;5025222;28;20371;-70
2022/11/30 03:29:32;;;;;;;174.00;57.65;;;9.80;99.90;;;;;;5025035;28;20037;-70
2022/11/30 03:31:58;;;;;;;185.95;58.63;;;9.80;99.90;;;;;;5024334;28;20497;-70
2022/11/30 03:34:26;;;;;;;177.98;57.50;;;9.80;99.90;;;;;;5026628;28;20046;-70
2022/11/30 03:36:52;;;;;;;180.57;57.88;;;9.80;99.90;;;;;;5023364;28;20022;-70
2022/11/30 03:39:17;;;;;;;214.02;60.80;;;9.80;99.90;;;;;;5023581;28;20036;-70
2022/11/30 03:41:43;;;;;;;179.30;62.67;;;9.80;99.90;;;;;;5026859;28;20374;-70
2022/11/30 03:44:09;;;;;;;144.77;52.30;;;9.80;99.90;;;;;;5022994;28;20045;-70
2022/11/30 03:46:34;;;;;;;170.63;57.55;;;9.80;99.90;;;;;;5029612;28;20033;-70
2022/11/30 03:49:00;;;;;;;167.60;58.47;;;9.80;99.90;;;;;;5027135;28;20034;-70
2022/11/30 03:51:26;;;;;;;170.88;56.70;;;9.80;99.90;;;;;;5023321;28;20036;-70
2022/11/30 03:53:51;;;;;;;180.75;57.50;;;9.80;99.90;;;;;;5026778;28;20040;-70
2022/11/30 03:56:17;;;;;;;161.88;57.28;;;9.90;99.90;;;;;;5023420;28;20056;-70
2022/11/30 03:58:42;;;;;;;164.82;55.78;;;9.90;99.90;;;;;;5025245;28;20048;-70
2022/11/30 04:01:11;;;;;;;170.85;56.42;;;9.90;99.90;;;;;;5026625;28;20026;-70
2022/11/30 04:03:38;;;;;;;174.77;56.25;;;9.80;99.90;;;;;;5025038;28;20026;-70
2022/11/30 04:06:06;;;;;;;150.88;51.30;;;9.80;99.90;;;;;;5023615;28;20178;-70
2022/11/30 04:08:32;;;;;;;156.55;53.90;;;9.90;99.90;;;;;;5027832;28;20025;-70
2022/11/30 04:10:59;;;;;;;147.25;53.15;;;9.90;99.90;;;;;;5024049;28;20058;-70
2022/11/30 04:13:26;;;;;;;165.30;55.80;;;9.90;99.90;;;;;;5026131;28;20559;-70
2022/11/30 04:15:53;;;;;;;176.70;58.38;;;9.90;99.90;;;;;;5024779;28;20029;-70
2022/11/30 04:18:21;;;;;;;166.98;58.05;;;9.90;99.90;;;;;;5027960;28;20021;-70
2022/11/30 04:20:53;;;;;;;187.48;57.97;;;9.90;99.90;;;;;;5023176;28;20041;-70
2022/11/30 04:23:20;;;;;;;169.10;55.70;;;9.90;99.90;;;;;;5024975;28;20025;-70
2022/11/30 04:25:46;;;;;;;154.75;53.20;;;9.90;99.90;;;;;;5024433;28;20087;-70
2022/11/30 04:28:13;;;;;;;151.48;55.45;;;9.90;99.90;;;;;;5024375;28;20053;-70
2022/11/30 04:30:38;;;;;;;161.70;55.58;;;9.90;99.90;;;;;;5023382;28;20051;-70
2022/11/30 04:33:04;;;;;;;142.32;55.45;;;9.80;99.90;;;;;;5026846;28;20021;-70
2022/11/30 04:35:31;;;;;;;146.02;52.10;;;9.90;99.90;;;;;;5028372;28;20466;-70
2022/11/30 04:37:57;;;;;;;148.32;52.92;;;9.90;99.90;;;;;;5021261;28;20026;-70
2022/11/30 04:40:22;;;;;;;139.73;54.35;;;9.90;99.90;;;;;;5026035;28;20040;-70
2022/11/30 04:42:48;;;;;;;155.77;52.25;;;9.80;99.90;;;;;;5019705;28;20112;-73
2022/11/30 04:45:14;;;;;;;148.73;52.92;;;9.80;99.90;;;;;;5026339;28;20105;-73
2022/11/30 04:47:39;;;;;;;171.77;57.15;;;9.80;99.90;;;;;;5022084;28;20067;-70
2022/11/30 04:50:07;;;;;;;143.20;52.05;;;9.80;99.90;;;;;;5026897;28;20495;-70
2022/11/30 04:52:33;;;;;;;138.00;51.08;;;9.80;99.90;;;;;;5028096;28;20033;-70
2022/11/30 04:54:59;;;;;;;152.07;52.08;;;9.80;99.90;;;;;;5021349;28;20171;-70
2022/11/30 04:57:24;;;;;;;143.77;51.25;;;9.80;99.90;;;;;;5028844;28;20120;-70
2022/11/30 04:59:51;;;;;;;167.73;52.10;;;9.80;99.90;;;;;;5035367;28;20022;-70
2022/11/30 05:02:16;;;;;;;140.10;51.80;;;9.80;99.90;;;;;;5026329;28;20032;-71
2022/11/30 05:04:42;;;;;;;164.63;58.50;;;9.80;99.90;;;;;;5033127;28;20022;-70
2022/11/30 05:07:08;;;;;;;151.40;54.80;;;9.70;99.90;;;;;;5034352;28;20493;-70
2022/11/30 05:09:33;;;;;;;139.63;50.17;;;9.70;99.90;;;;;;5027334;28;20037;-70
2022/11/30 05:11:59;;;;;;;162.45;54.72;;;9.70;99.90;;;;;;5030979;28;20026;-70
2022/11/30 05:14:25;;;;;;;161.07;57.60;;;9.70;99.90;;;;;;5034274;28;20080;-69
2022/11/30 05:16:51;;;;;;;160.10;55.28;;;9.70;99.90;;;;;;5027401;28;20021;-70
2022/11/30 05:19:16;;;;;;;158.63;53.83;;;9.70;99.90;;;;;;5033143;28;20030;-70
2022/11/30 05:21:42;;;;;;;202.13;56.00;;;9.70;99.90;;;;;;5029118;28;20034;-70
2022/11/30 05:24:09;;;;;;;195.25;56.03;;;9.70;99.90;;;;;;5030906;28;20026;-70
2022/11/30 05:26:36;;;;;;;179.35;51.45;;;9.70;99.90;;;;;;5032452;28;20033;-70
2022/11/30 05:29:05;;;;;;;148.43;52.20;;;9.70;99.90;;;;;;5028282;28;20112;-70
2022/11/30 05:31:31;;;;;;;137.85;51.30;;;9.70;99.90;;;;;;5031287;28;20513;-70
2022/11/30 05:33:57;;;;;;;143.43;51.55;;;9.70;99.90;;;;;;5032053;28;20033;-70
2022/11/30 05:36:23;;;;;;;204.55;56.28;;;9.70;99.90;;;;;;5029743;28;20080;-70
2022/11/30 05:38:48;;;;;;;137.60;51.70;;;9.70;99.90;;;;;;5032104;28;20090;-70
2022/11/30 05:41:14;;;;;;;122.30;50.33;;;9.70;99.90;;;;;;5031495;28;20029;-72
2022/11/30 05:43:40;;;;;;;120.38;49.08;;;9.70;99.90;;;;;;5028975;28;20536;-72
2022/11/30 05:46:08;;;;;;;128.30;50.38;;;9.70;99.90;;;;;;5032301;28;20124;-71
2022/11/30 05:48:33;;;;;;;144.48;52.15;;;9.70;99.90;;;;;;5034307;28;20030;-71
2022/11/30 05:51:14;;;;;;;124.60;48.63;;;9.70;99.90;;;;;;5034616;28;20063;-71
2022/11/30 05:53:40;;;;;;;132.35;48.92;;;9.70;99.90;;;;;;5034256;28;20021;-70
2022/11/30 05:56:11;;;;;;;153.05;52.33;;;9.70;99.90;;;;;;5028110;28;20025;-70
2022/11/30 05:58:37;;;;;;;132.77;48.78;;;9.70;99.90;;;;;;5033493;28;20559;-71
2022/11/30 06:01:03;;;;;;;153.10;50.45;;;9.60;99.90;;;;;;5034526;28;20026;-71
2022/11/30 06:03:30;;;;;;;129.73;46.90;;;9.60;99.90;;;;;;5034385;28;20021;-71
2022/11/30 06:05:56;;;;;;;138.43;50.78;;;9.60;99.90;;;;;;5032679;28;20028;-71
2022/11/30 06:08:22;;;;;;;133.70;50.88;;;9.60;99.90;;;;;;5027680;28;20030;-71
2022/11/30 06:10:48;;;;;;;120.72;49.72;;;9.60;99.90;;;;;;5031783;28;20025;-70
2022/11/30 06:13:14;;;;;;;127.30;50.50;;;9.70;99.90;;;;;;5032344;28;20238;-71
2022/11/30 06:15:40;;;;;;;125.22;47.50;;;9.70;99.90;;;;;;5026039;28;20038;-71
2022/11/30 06:18:07;;;;;;;134.40;49.15;;;9.70;99.90;;;;;;5033396;28;20351;-71
2022/11/30 06:20:33;;;;;;;120.75;46.83;;;9.70;99.90;;;;;;5034769;28;20054;-70
2022/11/30 06:22:59;;;;;;;129.15;47.42;;;9.60;99.90;;;;;;5024666;28;20075;-71
2022/11/30 06:25:25;;;;;;;115.47;46.35;;;9.60;99.90;;;;;;5028495;28;20105;-71
2022/11/30 06:27:51;;;;;;;127.70;48.33;;;9.60;99.90;;;;;;5027288;28;20030;-71
2022/11/30 06:30:17;;;;;;;121.00;46.70;;;9.60;99.90;;;;;;5036114;28;20352;-70
2022/11/30 06:32:45;;;;;;;124.38;45.65;;;9.70;99.90;;;;;;5023880;28;20026;-71
2022/11/30 06:35:10;;;;;;;118.40;43.80;;;9.70;99.90;;;;;;5027880;28;20048;-70
2022/11/30 06:37:36;;;;;;;117.57;46.20;;;9.70;99.90;;;;;;5028846;28;20029;-71
2022/11/30 06:40:02;;;;;;;112.88;46.13;;;9.70;99.90;;;;;;5028809;28;20481;-72
2022/11/30 06:42:30;;;;;;;263.27;58.08;;;9.60;99.90;;;;;;5029044;28;20490;-71
2022/11/30 06:44:55;;;;;;;131.60;46.55;;;9.60;99.90;;;;;;5035453;28;20132;-71
2022/11/30 06:47:21;;;;;;;100.38;43.10;;;9.60;99.90;;;;;;5023991;28;20471;-71
2022/11/30 06:49:47;;;;;;;110.00;44.97;;;9.60;99.90;;;;;;5029129;28;20048;-71
2022/11/30 06:52:12;;;;;;;131.63;48.08;;;9.60;99.90;;;;;;5028933;28;21546;-71
2022/11/30 06:54:38;;;;;;;114.57;45.03;;;9.60;99.90;;;;;;5022796;28;20038;-71
2022/11/30 06:57:04;;;;;;;147.90;47.53;;;9.60;99.90;;;;;;5029864;28;20026;-71
2022/11/30 06:59:29;;;;;;;121.22;43.38;;;9.60;99.90;;;;;;5024006;28;20447;-70
2022/11/30 07:01:55;;;;;;;109.32;42.35;;;9.60;99.90;;;;;;5022528;28;20022;-70
2022/11/30 07:04:21;;;;;;;163.88;48.88;;;9.60;99.90;;;;;;5025033;28;20029;-70
2022/11/30 07:06:46;;;;;;;90.25;41.00;;;9.60;99.90;;;;;;5031487;28;20035;-71
2022/11/30 07:09:13;;;;;;;113.43;42.70;;;9.60;99.90;;;;;;5018733;28;20049;-71
2022/11/30 07:11:39;;;;;;;139.45;44.58;;;9.60;99.90;;;;;;5029960;28;20036;-71
2022/11/30 07:14:05;;;;;;;140.77;47.17;;;9.60;99.90;;;;;;5026097;28;20037;-71
2022/11/30 07:16:30;;;;;;;182.00;47.15;;;9.50;99.90;;;;;;5021137;28;20482;-71
2022/11/30 07:18:56;;;;;;;105.15;41.95;;;9.50;99.90;;;;;;5018829;28;20026;-71
2022/11/30 07:21:21;;;;;;;268.90;57.78;;;9.50;99.90;;;;;;5026343;28;20504;-71
2022/11/30 07:26:32;;;;;;;128.50;41.72;;;9.60;99.90;;;;;;5025700;28;20044;-72
2022/11/30 07:28:57;;;;;;;119.90;44.63;;;9.60;99.90;;;;;;5026241;28;20022;-71
2022/11/30 07:31:29;;;;;;;119.47;43.38;;;9.60;99.90;;;;;;5020089;28;20430;-73
2022/11/30 07:33:55;;;;;;;80.50;38.45;;;9.60;99.90;;;;;;5024517;28;20099;-71
2022/11/30 07:36:24;;;;;;;114.70;39.47;;;9.60;99.90;;;;;;5023044;28;20029;-71
2022/11/30 07:38:50;;;;;;;92.57;36.72;;;9.60;99.90;;;;;;5057992;28;20029;-71
2022/11/30 07:41:16;;;;;;;104.95;39.55;;;9.60;99.90;;;;;;5030362;28;20029;-73
2022/11/30 07:43:42;;;;;;;121.47;40.40;;;9.60;99.90;;;;;;5025066;28;20193;-70
2022/11/30 07:46:11;;;;;;;96.90;40.53;;;9.60;99.90;;;;;;5022820;28;20084;-71
2022/11/30 07:48:37;;;;;;;85.20;37.03;;;9.50;99.90;;;;;;5029866;28;20021;-70
2022/11/30 07:51:05;;;;;;;134.75;42.30;;;9.50;99.90;;;;;;5025527;28;20499;-71
2022/11/30 07:53:31;;;;;;;123.40;39.53;;;9.60;99.90;;;;;;5023369;28;20037;-74
2022/11/30 07:56:09;;;;;;;79.35;36.83;;;9.60;99.90;;;;;;5031792;28;20405;-75
2022/11/30 07:58:35;;;;;;;76.15;37.95;;;9.60;99.90;;;;;;5031011;28;20052;-73
2022/11/30 08:01:06;;;;;;;86.00;40.70;;;9.60;99.90;;;;;;5028934;28;20482;-75
2022/11/30 08:03:32;;;;;;;90.07;40.65;;;9.50;99.90;;;;;;5023709;28;20053;-73
2022/11/30 08:06:06;;;;;;;93.57;38.65;;;9.60;99.90;;;;;;5023993;28;20072;-73
2022/11/30 08:08:34;;;;;;;95.22;39.17;;;9.60;99.90;;;;;;5021371;28;20582;-74
2022/11/30 08:11:01;;;;;;;96.45;39.20;;;9.60;99.90;;;;;;5025859;28;20017;-74
2022/11/30 08:13:27;;;;;;;86.65;37.30;;;9.60;99.90;;;;;;5025633;28;20502;-74
2022/11/30 08:15:53;;;;;;;82.50;38.88;;;9.60;99.90;;;;;;5025392;28;20468;-73
2022/11/30 08:18:18;;;;;;;77.00;36.47;;;9.60;99.90;;;;;;5024136;28;20080;-73
2022/11/30 08:20:44;;;;;;;100.75;40.85;;;9.60;99.90;;;;;;5022081;28;20033;-74
2022/11/30 08:23:11;;;;;;;94.43;40.70;;;9.70;99.90;;;;;;5026174;28;20045;-74
2022/11/30 08:25:36;;;;;;;77.35;38.30;;;9.70;99.90;;;;;;5023092;28;20026;-74
2022/11/30 08:28:03;;;;;;;76.50;37.75;;;9.70;99.90;;;;;;5042667;28;20466;-74
2022/11/30 08:30:28;;;;;;;96.82;39.40;;;9.70;99.90;;;;;;5023997;28;20029;-73
2022/11/30 08:32:55;;;;;;;75.05;36.78;;;9.70;99.90;;;;;;5025411;28;20022;-73
2022/11/30 08:35:21;;;;;;;114.22;43.45;;;9.80;99.90;;;;;;5022829;28;20033;-74
2022/11/30 08:37:46;;;;;;;85.47;38.28;;;9.80;99.90;;;;;;5029663;28;20075;-73
2022/11/30 08:40:12;;;;;;;83.85;40.25;;;9.80;99.90;;;;;;5025975;28;20470;-73
2022/11/30 08:42:38;;;;;;;75.28;36.72;;;9.80;99.90;;;;;;5026621;28;20336;-74
2022/11/30 08:45:04;;;;;;;68.70;36.53;;;9.90;99.90;;;;;;5027767;28;20537;-73
2022/11/30 08:47:30;;;;;;;82.88;38.72;;;9.80;99.90;;;;;;5025995;28;20064;-75
2022/11/30 08:49:56;;;;;;;77.00;38.55;;;9.90;99.90;;;;;;5032813;28;20053;-74
2022/11/30 08:52:22;;;;;;;75.20;38.85;;;9.80;99.90;;;;;;5028048;28;20040;-74
2022/11/30 08:54:47;;;;;;;86.80;40.92;;;9.80;99.90;;;;;;5037196;28;20029;-74
2022/11/30 08:57:18;;;;;;;81.82;38.65;;;9.80;99.90;;;;;;5020339;28;20175;-73
2022/11/30 08:59:44;;;;;;;77.22;38.25;;;9.80;99.90;;;;;;5031704;28;20413;-73
2022/11/30 09:02:12;;;;;;;89.47;42.25;;;9.80;99.90;;;;;;5025976;28;20397;-73
2022/11/30 09:04:38;;;;;;;83.28;41.38;;;9.80;99.90;;;;;;5028578;28;20033;-74
2022/11/30 09:07:04;;;;;;;67.30;35.65;;;9.80;99.90;;;;;;5031489;28;20405;-74
2022/11/30 09:09:30;;;;;;;79.25;40.28;;;9.80;99.90;;;;;;5024432;28;20036;-74
2022/11/30 09:11:55;;;;;;;78.18;37.22;;;9.80;99.90;;;;;;5029452;28;20127;-74
2022/11/30 09:14:21;;;;;;;76.63;38.70;;;9.80;99.90;;;;;;5036405;28;20030;-74
2022/11/30 09:16:47;;;;;;;69.75;36.58;;;9.80;99.90;;;;;;5035729;28;20055;-74
2022/11/30 09:19:12;;;;;;;72.00;37.67;;;9.80;99.90;;;;;;5031130;28;20088;-74
2022/11/30 09:21:38;;;;;;;69.80;36.47;;;9.90;99.90;;;;;;5027336;28;20029;-73
2022/11/30 09:24:04;;;;;;;79.65;36.80;;;9.80;99.90;;;;;;5032771;28;20033;-74
2022/11/30 09:26:29;;;;;;;71.85;37.03;;;9.80;99.90;;;;;;5028729;28;20572;-73
2022/11/30 09:28:55;;;;;;;71.03;35.63;;;9.90;99.90;;;;;;5027703;28;20018;-74
2022/11/30 09:31:25;;;;;;;69.20;35.92;;;9.90;99.90;;;;;;5031034;28;20473;-73
2022/11/30 09:33:53;;;;;;;70.78;36.08;;;9.90;99.90;;;;;;5028556;28;20021;-72
2022/11/30 09:36:21;;;;;;;77.00;37.90;;;9.90;99.90;;;;;;5027288;28;20029;-73
2022/11/30 09:38:47;;;;;;;73.03;38.00;;;10.00;99.90;;;;;;5027456;28;20032;-73
2022/11/30 09:41:57;;;;;;;70.72;36.28;;;10.00;99.90;;;;;;5032249;28;20083;-73
2022/11/30 09:44:34;;;;;;;69.07;35.75;;;10.00;99.90;;;;;;5024029;28;20041;-73
2022/11/30 09:47:19;;;;;;;67.35;36.95;;;9.90;99.90;;;;;;5033813;28;20037;-73
2022/11/30 09:49:47;;;;;;;71.95;36.75;;;10.00;99.90;;;;;;5028974;28;20403;-72
2022/11/30 09:52:33;;;;;;;71.95;36.80;;;10.10;99.90;;;;;;5029482;28;20592;-74
2022/11/30 09:55:05;;;;;;;69.10;35.92;;;10.00;99.90;;;;;;5027695;28;20037;-74
2022/11/30 09:57:48;;;;;;;75.47;37.70;;;10.10;99.90;;;;;;5028110;28;20125;-72
2022/11/30 10:00:20;;;;;;;67.68;37.28;;;10.20;99.90;;;;;;5023033;28;20029;-73
2022/11/30 10:02:48;;;;;;;65.57;36.28;;;10.10;99.90;;;;;;5029051;28;20036;-73
2022/11/30 10:05:20;;;;;;;72.35;36.45;;;10.20;99.90;;;;;;5024519;28;20029;-71
2022/11/30 10:08:24;;;;;;;74.75;38.03;;;10.20;99.90;;;;;;5025833;28;20028;-72
2022/11/30 10:11:23;;;;;;;63.75;34.90;;;10.20;99.90;;;;;;5019887;28;20088;-73
2022/11/30 10:14:01;;;;;;;82.53;37.65;;;10.20;99.90;;;;;;5024419;28;20481;-72
2022/11/30 10:17:07;;;;;;;70.03;37.75;;;10.20;99.90;;;;;;5026606;28;20295;-74
2022/11/30 10:19:33;;;;;;;67.47;36.53;;;10.20;99.90;;;;;;5022631;28;20061;-73
2022/11/30 10:21:59;;;;;;;67.90;37.45;;;10.20;99.90;;;;;;5029121;28;20414;-73
2022/11/30 10:24:53;;;;;;;67.80;36.50;;;10.20;99.90;;;;;;5030257;28;20092;-74
2022/11/30 10:27:37;;;;;;;65.03;36.60;;;10.20;99.90;;;;;;5021850;28;20022;-73
2022/11/30 10:30:08;;;;;;;71.97;34.33;;;10.30;99.90;;;;;;5025232;28;20041;-72
2022/11/30 10:32:39;;;;;;;68.47;35.75;;;10.20;99.90;;;;;;5034683;28;20501;-74
2022/11/30 10:35:33;;;;;;;64.43;35.35;;;10.20;99.90;;;;;;5023582;28;20046;-73
2022/11/30 10:38:08;;;;;;;63.63;33.75;;;10.20;99.90;;;;;;5027926;28;20032;-73
2022/11/30 10:40:56;;;;;;;78.47;37.60;;;10.20;99.90;;;;;;5025726;28;20112;-73
2022/11/30 10:43:28;;;;;;;66.43;34.42;;;10.30;99.90;;;;;;5024615;28;20033;-74
2022/11/30 10:45:54;;;;;;;74.03;38.13;;;10.30;99.90;;;;;;5021283;28;20108;-74
2022/11/30 10:48:43;;;;;;;66.32;36.72;;;10.30;99.90;;;;;;5025452;28;20101;-74
2022/11/30 10:51:11;;;;;;;83.53;34.63;;;10.30;99.90;;;;;;5024922;28;20052;-73
2022/11/30 10:53:36;;;;;;;61.63;34.72;;;10.40;99.90;;;;;;5020482;28;20453;-73
2022/11/30 10:56:09;;;;;;;69.05;34.70;;;10.40;99.90;;;;;;5024758;28;20113;-74
2022/11/30 10:58:59;;;;;;;66.53;33.55;;;10.40;99.90;;;;;;5023317;28;20514;-72
2022/11/30 11:01:36;;;;;;;63.53;35.20;;;10.50;99.90;;;;;;5031649;28;20116;-74
2022/11/30 11:04:11;;;;;;;66.93;32.88;;;10.50;99.90;;;;;;5033307;28;20025;-74
2022/11/30 11:06:52;;;;;;;59.38;32.70;;;10.50;99.90;;;;;;5024486;28;20032;-73
2022/11/30 11:09:36;;;;;;;57.60;34.42;;;10.60;99.90;;;;;;5026846;28;20078;-74
2022/11/30 11:12:03;;;;;;;63.42;33.47;;;10.60;99.90;;;;;;5021869;28;20033;-74
2022/11/30 11:14:30;;;;;;;60.40;34.50;;;10.60;99.90;;;;;;5024389;28;20042;-72
2022/11/30 11:17:05;;;;;;;57.33;31.40;;;10.60;99.90;;;;;;5026121;28;20029;-74
2022/11/30 11:19:40;;;;;;;62.17;34.90;;;10.60;99.90;;;;;;5021450;28;20033;-74
2022/11/30 11:22:21;;;;;;;57.10;34.90;;;10.70;99.90;;;;;;5029086;28;20362;-74
2022/11/30 11:24:53;;;;;;;62.15;34.35;;;10.70;99.90;;;;;;5020312;28;20025;-74
2022/11/30 11:27:28;;;;;;;54.45;31.40;;;10.70;99.90;;;;;;5028142;28;20021;-73
2022/11/30 11:30:02;;;;;;;61.42;32.72;;;10.60;99.90;;;;;;5027971;28;20026;-72
2022/11/30 11:32:29;;;;;;;55.83;32.47;;;10.70;99.90;;;;;;5019292;28;20144;-74
2022/11/30 11:34:55;;;;;;;55.30;34.40;;;10.70;99.90;;;;;;5024275;28;20119;-72
2022/11/30 11:37:27;;;;;;;60.45;33.45;;;10.70;99.90;;;;;;5018528;28;20022;-73
2022/11/30 11:39:57;;;;;;;65.70;35.60;;;10.80;99.90;;;;;;5026821;28;20021;-73
2022/11/30 11:42:24;;;;;;;58.25;35.15;;;10.90;99.90;;;;;;5023001;28;20014;-74
2022/11/30 11:44:53;;;;;;;56.47;33.40;;;10.90;99.90;;;;;;5023039;28;20056;-74
2022/11/30 11:47:22;;;;;;;52.55;33.20;;;10.80;99.90;;;;;;5028035;28;20018;-74
2022/11/30 11:49:49;;;;;;;54.28;32.97;;;10.90;99.90;;;;;;5025778;28;20053;-74
2022/11/30 11:52:16;;;;;;;56.65;30.15;;;10.90;99.90;;;;;;5028244;28;20025;-72
2022/11/30 11:55:04;;;;;;;52.97;31.30;;;10.90;99.90;;;;;;5024442;28;20069;-73
2022/11/30 11:57:37;;;;;;;51.08;30.95;;;10.90;99.90;;;;;;5020725;28;20037;-73
2022/11/30 12:00:18;;;;;;;56.63;32.30;;;10.90;99.90;;;;;;5026590;28;20430;-74
2022/11/30 12:03:07;;;;;;;56.35;32.72;;;10.80;99.90;;;;;;5028564;28;20474;-73
2022/11/30 12:05:39;;;;;;;53.28;32.65;;;10.90;99.90;;;;;;5029956;28;20402;-73
2022/11/30 12:08:08;;;;;;;;;;;11.00;99.90;;;;;;5024119;28;20037;-71
2022/11/30 12:10:59;;;;;;;50.83;30.60;;;11.00;99.90;;;;;;5034097;28;19909;-74
2022/11/30 12:13:32;;;;;;;52.20;31.73;;;11.00;99.90;;;;;;5020776;28;20034;-73
2022/11/30 12:16:11;;;;;;;53.83;31.92;;;10.80;99.90;;;;;;5027045;28;20417;-73
2022/11/30 12:18:48;;;;;;;55.67;32.42;;;10.80;99.90;;;;;;5027905;28;20033;-73
2022/11/30 12:21:21;;;;;;;55.80;31.98;;;10.70;99.90;;;;;;5021619;28;20025;-73
2022/11/30 12:23:55;;;;;;;;;;;10.80;99.90;;;;;;5029203;28;20385;-70
2022/11/30 12:26:39;;;;;;;51.30;28.30;;;10.80;99.90;;;;;;5032901;28;20014;-71
2022/11/30 12:29:20;;;;;;;46.58;28.85;;;10.80;99.90;;;;;;5030602;28;20029;-73
2022/11/30 12:32:00;;;;;;;47.95;28.83;;;10.70;99.90;;;;;;5027033;28;20048;-73
2022/11/30 12:34:50;;;;;;;46.13;29.48;;;10.70;99.90;;;;;;4990191;28;20039;-73
2022/11/30 12:37:48;;;;;;;44.78;28.52;;;10.70;99.90;;;;;;5025066;28;20367;-74
2022/11/30 12:40:32;;;;;;;46.08;28.25;;;10.70;99.90;;;;;;5020936;28;20058;-71
2022/11/30 12:43:23;;;;;;;42.10;24.90;;;10.60;99.90;;;;;;5025154;28;20018;-73